createdAt,value
2022-09-21T00:01:18.175Z,6.10
2022-09-21T00:03:45.717Z,2.33
2022-09-21T00:06:13.727Z,2.25
2022-09-21T00:08:40.552Z,2.92
2022-09-21T00:11:08.760Z,2.15
2022-09-21T00:13:37.839Z,3.50
2022-09-21T00:16:08.527Z,2.15
2022-09-21T00:18:36.461Z,3.35
2022-09-21T00:21:08.375Z,2.13
2022-09-21T00:23:36.430Z,1.83
2022-09-21T00:26:17.829Z,1.60
2022-09-21T00:28:44.974Z,1.70
2022-09-21T00:31:15.372Z,6.35
2022-09-21T00:33:43.600Z,2.50
2022-09-21T00:36:13.666Z,3.83
2022-09-21T00:38:40.753Z,3.30
2022-09-21T00:41:09.413Z,2.05
2022-09-21T00:43:47.795Z,3.88
2022-09-21T00:46:29.204Z,2.20
2022-09-21T00:48:57.308Z,2.67
2022-09-21T00:51:25.015Z,3.90
2022-09-21T00:53:59.089Z,2.75
2022-09-21T00:56:26.511Z,3.83
2022-09-21T00:58:54.863Z,1.80
2022-09-21T01:01:22.228Z,3.83
2022-09-21T01:03:51.365Z,3.25
2022-09-21T01:06:21.153Z,2.83
2022-09-21T01:08:52.783Z,5.75
2022-09-21T01:11:38.293Z,8.38
2022-09-21T01:14:23.116Z,4.90
2022-09-21T01:16:56.059Z,2.40
2022-09-21T01:19:51.063Z,3.78
2022-09-21T01:22:37.618Z,4.28
2022-09-21T01:25:27.941Z,6.60
2022-09-21T01:28:21.695Z,6.22
2022-09-21T01:30:52.263Z,7.70
2022-09-21T01:33:27.307Z,2.58
2022-09-21T01:36:05.624Z,2.22
2022-09-21T01:38:38.794Z,2.60
2022-09-21T01:41:08.030Z,2.25
2022-09-21T01:43:39.523Z,6.32
2022-09-21T01:46:10.925Z,5.00
2022-09-21T01:48:41.817Z,9.18
2022-09-21T01:51:13.851Z,7.13
2022-09-21T01:53:55.201Z,8.85
2022-09-21T01:56:46.606Z,4.05
2022-09-21T01:59:25.783Z,6.68
2022-09-21T02:01:57.581Z,3.20
2022-09-21T02:04:24.736Z,4.65
2022-09-21T02:06:51.737Z,4.47
2022-09-21T02:09:19.295Z,4.95
2022-09-21T02:11:46.199Z,5.30
2022-09-21T02:14:21.115Z,2.70
2022-09-21T02:17:19.449Z,3.83
2022-09-21T02:20:15.113Z,2.03
2022-09-21T02:22:54.889Z,2.58
2022-09-21T02:25:29.634Z,3.20
2022-09-21T02:28:06.343Z,3.97
2022-09-21T02:30:35.363Z,3.75
2022-09-21T02:33:19.770Z,2.30
2022-09-21T02:36:11.764Z,5.05
2022-09-21T02:38:52.375Z,6.07
2022-09-21T02:42:01.919Z,6.93
2022-09-21T02:44:47.715Z,4.50
2022-09-21T02:47:24.328Z,5.43
2022-09-21T02:49:58.757Z,3.70
2022-09-21T02:52:26.420Z,3.63
2022-09-21T02:54:55.105Z,3.08
2022-09-21T02:57:23.533Z,5.35
2022-09-21T02:59:51.097Z,3.58
2022-09-21T03:02:17.825Z,5.90
2022-09-21T03:04:47.895Z,2.65
2022-09-21T03:07:18.091Z,3.60
2022-09-21T03:09:45.216Z,5.57
2022-09-21T03:12:12.008Z,3.30
2022-09-21T03:14:39.140Z,5.85
2022-09-21T03:17:05.883Z,4.38
2022-09-21T03:19:32.543Z,3.60
2022-09-21T03:21:59.725Z,5.70
2022-09-21T03:24:44.875Z,3.83
2022-09-21T03:27:12.504Z,2.17
2022-09-21T03:29:39.195Z,4.47
2022-09-21T03:32:06.498Z,2.50
2022-09-21T03:34:34.253Z,2.38
2022-09-21T03:37:02.094Z,5.43
2022-09-21T03:39:28.976Z,4.95
2022-09-21T03:41:58.479Z,2.70
2022-09-21T03:44:26.730Z,3.13
2022-09-21T03:46:53.841Z,7.00
2022-09-21T03:49:20.972Z,2.78
2022-09-21T03:51:47.953Z,1.70
2022-09-21T03:54:14.866Z,2.58
2022-09-21T03:56:41.753Z,2.47
2022-09-21T03:59:13.184Z,2.33
2022-09-21T04:01:40.842Z,4.00
2022-09-21T04:04:07.664Z,2.67
2022-09-21T04:06:34.783Z,3.03
2022-09-21T04:09:03.031Z,1.95
2022-09-21T04:11:30.072Z,3.60
2022-09-21T04:13:57.337Z,2.83
2022-09-21T04:16:25.499Z,2.75
2022-09-21T04:18:52.379Z,2.35
2022-09-21T04:21:19.666Z,2.05
2022-09-21T04:23:46.641Z,1.70
2022-09-21T04:26:41.085Z,2.83
2022-09-21T04:29:07.834Z,2.35
2022-09-21T04:31:35.055Z,4.70
2022-09-21T04:34:01.734Z,3.28
2022-09-21T04:36:32.089Z,3.00
2022-09-21T04:39:02.571Z,2.58
2022-09-21T04:41:29.336Z,2.50
2022-09-21T04:43:56.156Z,2.33
2022-09-21T04:46:23.361Z,2.30
2022-09-21T04:48:50.127Z,2.33
2022-09-21T04:51:17.539Z,2.00
2022-09-21T04:53:44.980Z,2.45
2022-09-21T04:56:14.847Z,2.65
2022-09-21T04:58:41.680Z,2.30
2022-09-21T05:01:08.648Z,2.00
2022-09-21T05:03:35.587Z,3.03
2022-09-21T05:06:02.567Z,5.07
2022-09-21T05:08:47.707Z,6.78
2022-09-21T05:11:19.002Z,5.63
2022-09-21T05:13:46.664Z,8.40
2022-09-21T05:16:14.456Z,4.15
2022-09-21T05:18:41.206Z,6.65
2022-09-21T05:21:07.995Z,4.78
2022-09-21T05:23:34.936Z,5.20
2022-09-21T05:26:01.727Z,5.13
2022-09-21T05:28:28.910Z,5.78
2022-09-21T05:31:18.036Z,2.97
2022-09-21T05:33:52.312Z,3.72
2022-09-21T05:36:45.376Z,8.30
2022-09-21T05:39:12.704Z,3.78
2022-09-21T05:41:39.841Z,3.75
2022-09-21T05:44:07.111Z,2.58
2022-09-21T05:46:43.084Z,3.78
2022-09-21T05:49:44.904Z,7.88
2022-09-21T05:52:35.942Z,5.47
2022-09-21T05:55:39.898Z,3.67
2022-09-21T05:58:13.753Z,6.40
2022-09-21T06:00:57.739Z,4.05
2022-09-21T06:03:29.289Z,3.47
2022-09-21T06:05:57.019Z,4.10
2022-09-21T06:08:24.701Z,5.00
2022-09-21T06:10:52.275Z,3.28
2022-09-21T06:13:19.220Z,7.28
2022-09-21T06:15:46.112Z,7.05
2022-09-21T06:18:17.518Z,4.97
2022-09-21T06:20:44.645Z,5.35
2022-09-21T06:23:15.495Z,3.35
2022-09-21T06:25:42.287Z,9.00
2022-09-21T06:28:13.403Z,6.22
2022-09-21T06:30:42.851Z,7.13
2022-09-21T06:33:09.924Z,6.75
2022-09-21T06:35:37.109Z,7.72
2022-09-21T06:38:07.078Z,5.65
2022-09-21T06:40:36.133Z,6.93
2022-09-21T06:43:04.496Z,7.45
2022-09-21T06:45:31.284Z,7.75
2022-09-21T06:47:58.874Z,8.15
2022-09-21T06:50:25.712Z,8.15
2022-09-21T06:52:52.425Z,5.22
2022-09-21T06:55:19.672Z,5.00
2022-09-21T06:57:46.431Z,12.95
2022-09-21T07:00:14.228Z,5.82
2022-09-21T07:02:45.461Z,7.38
2022-09-21T07:05:12.892Z,5.18
2022-09-21T07:07:40.412Z,6.68
2022-09-21T07:10:13.090Z,7.93
2022-09-21T07:12:43.683Z,6.38
2022-09-21T07:15:10.899Z,8.15
2022-09-21T07:17:39.422Z,6.13
2022-09-21T07:20:08.041Z,12.55
2022-09-21T07:22:35.743Z,6.13
2022-09-21T07:25:04.320Z,8.67
2022-09-21T07:27:32.395Z,7.10
2022-09-21T07:29:59.244Z,4.97
2022-09-21T07:32:26.213Z,9.97
2022-09-21T07:34:56.451Z,7.97
2022-09-21T07:37:27.234Z,6.40
2022-09-21T07:39:54.587Z,9.83
2022-09-21T07:42:22.873Z,4.83
2022-09-21T07:44:50.956Z,8.47
2022-09-21T07:47:17.988Z,5.27
2022-09-21T07:49:47.051Z,8.67
2022-09-21T07:52:15.399Z,7.47
2022-09-21T07:54:42.130Z,8.30
2022-09-21T07:57:27.392Z,13.03
2022-09-21T07:59:56.480Z,7.80
2022-09-21T08:02:23.310Z,5.33
2022-09-21T08:04:50.124Z,5.93
2022-09-21T08:07:16.839Z,9.30
2022-09-21T08:09:43.536Z,6.53
2022-09-21T08:12:11.059Z,3.40
2022-09-21T08:14:38.053Z,4.47
2022-09-21T08:17:04.766Z,6.43
2022-09-21T08:19:31.595Z,4.20
2022-09-21T08:21:58.917Z,3.57
2022-09-21T08:24:28.615Z,6.23
2022-09-21T08:26:56.010Z,4.60
2022-09-21T08:29:24.696Z,3.23
2022-09-21T08:31:53.512Z,3.50
2022-09-21T08:34:20.368Z,4.87
2022-09-21T08:36:48.864Z,3.53
2022-09-21T08:39:18.510Z,3.90
2022-09-21T08:41:55.211Z,6.03
2022-09-21T08:44:29.704Z,5.70
2022-09-21T08:47:13.545Z,2.00
2022-09-21T08:49:44.893Z,5.17
2022-09-21T08:52:17.958Z,3.40
2022-09-21T08:54:59.046Z,3.67
2022-09-21T08:57:33.953Z,2.77
2022-09-21T09:00:02.521Z,2.90
2022-09-21T09:02:47.866Z,6.27
2022-09-21T09:05:39.499Z,2.17
2022-09-21T09:08:37.059Z,1.40
2022-09-21T09:11:18.136Z,1.60
2022-09-21T09:14:19.815Z,4.47
2022-09-21T09:17:21.636Z,3.17
2022-09-21T09:20:13.738Z,2.20
2022-09-21T09:22:45.216Z,2.10
2022-09-21T09:25:42.159Z,2.60
2022-09-21T09:28:27.276Z,3.33
2022-09-21T09:31:19.593Z,2.03
2022-09-21T09:33:52.895Z,1.60
2022-09-21T09:36:34.853Z,3.90
2022-09-21T09:39:13.335Z,2.00
2022-09-21T09:42:00.746Z,2.60
2022-09-21T09:44:55.465Z,2.20
2022-09-21T09:47:30.977Z,1.67
2022-09-21T09:50:06.658Z,1.70
2022-09-21T09:52:34.052Z,4.00
2022-09-21T09:55:02.663Z,3.70
2022-09-21T09:57:34.030Z,1.73
2022-09-21T10:00:09.214Z,4.10
2022-09-21T10:02:48.062Z,3.97
2022-09-21T10:05:25.503Z,3.80
2022-09-21T10:07:53.115Z,2.50
2022-09-21T10:10:28.586Z,1.27
2022-09-21T10:13:02.497Z,2.53
2022-09-21T10:15:29.760Z,1.27
2022-09-21T10:18:06.844Z,3.07
2022-09-21T10:20:33.852Z,4.03
2022-09-21T10:23:00.971Z,2.33
2022-09-21T10:25:27.762Z,1.30
2022-09-21T10:27:55.908Z,1.80
2022-09-21T10:30:36.093Z,2.00
2022-09-21T10:33:03.692Z,1.43
2022-09-21T10:35:30.552Z,1.20
2022-09-21T10:38:22.059Z,1.30
2022-09-21T10:40:50.155Z,3.03
2022-09-21T10:43:43.499Z,1.33
2022-09-21T10:46:11.634Z,1.17
2022-09-21T10:48:38.404Z,1.20
2022-09-21T10:51:05.324Z,2.17
2022-09-21T10:53:34.799Z,2.97
2022-09-21T10:56:20.687Z,2.43
2022-09-21T10:59:10.087Z,1.43
2022-09-21T11:01:42.591Z,4.73
2022-09-21T11:04:18.379Z,1.37
2022-09-21T11:06:49.351Z,2.30
2022-09-21T11:09:45.918Z,1.60
2022-09-21T11:12:49.014Z,1.23
2022-09-21T11:16:07.006Z,1.47
2022-09-21T11:18:46.946Z,1.17
2022-09-21T11:21:30.191Z,1.23
2022-09-21T11:24:19.814Z,1.23
2022-09-21T11:26:56.907Z,2.30
2022-09-21T11:29:38.332Z,1.30
2022-09-21T11:32:10.845Z,2.37
2022-09-21T11:34:54.615Z,1.70
2022-09-21T11:37:51.149Z,1.73
2022-09-21T11:40:39.723Z,1.60
2022-09-21T11:43:27.499Z,2.30
2022-09-21T11:46:20.534Z,1.30
2022-09-21T11:49:27.468Z,1.53
2022-09-21T11:52:06.147Z,2.50
2022-09-21T11:55:11.146Z,1.10
2022-09-21T11:58:10.125Z,1.53
2022-09-21T12:01:06.152Z,1.73
2022-09-21T12:04:11.049Z,2.23
2022-09-21T12:06:49.465Z,1.43
2022-09-21T12:09:50.289Z,1.27
2022-09-21T12:12:24.835Z,4.30
2022-09-21T12:15:00.390Z,1.43
2022-09-21T12:17:45.741Z,1.60
2022-09-21T12:20:31.202Z,1.10
2022-09-21T12:23:06.179Z,1.40
2022-09-21T12:25:38.109Z,1.83
2022-09-21T12:28:22.643Z,3.10
2022-09-21T12:31:01.622Z,1.87
2022-09-21T12:33:43.163Z,1.50
2022-09-21T12:36:32.715Z,1.93
2022-09-21T12:39:15.338Z,2.30
2022-09-21T12:41:55.547Z,3.47
2022-09-21T12:44:54.851Z,1.67
2022-09-21T12:47:34.142Z,2.30
2022-09-21T12:50:25.734Z,1.57
2022-09-21T12:52:53.897Z,4.37
2022-09-21T12:55:28.865Z,6.13
2022-09-21T12:58:15.557Z,1.07
2022-09-21T13:01:03.282Z,1.90
2022-09-21T13:03:36.151Z,1.20
2022-09-21T13:06:11.562Z,1.20
2022-09-21T13:08:46.947Z,1.70
2022-09-21T13:11:20.871Z,1.70
2022-09-21T13:13:53.343Z,1.10
2022-09-21T13:16:39.456Z,1.30
2022-09-21T13:19:21.580Z,1.27
2022-09-21T13:22:14.564Z,4.17
2022-09-21T13:24:42.877Z,1.20
2022-09-21T13:27:09.963Z,1.70
2022-09-21T13:29:40.278Z,1.53
2022-09-21T13:32:13.904Z,2.50
2022-09-21T13:34:42.599Z,7.60
2022-09-21T13:37:15.547Z,6.00
2022-09-21T13:39:50.375Z,1.87
2022-09-21T13:42:35.173Z,1.20
2022-09-21T13:45:15.313Z,2.13
2022-09-21T13:47:45.255Z,1.30
2022-09-21T13:50:45.116Z,1.30
2022-09-21T13:53:23.505Z,2.70
2022-09-21T13:55:53.860Z,1.30
2022-09-21T13:58:29.857Z,2.00
2022-09-21T14:01:00.451Z,2.07
2022-09-21T14:03:39.459Z,1.43
2022-09-21T14:06:08.580Z,1.47
2022-09-21T14:08:48.821Z,2.70
2022-09-21T14:11:23.893Z,2.53
2022-09-21T14:14:09.481Z,1.23
2022-09-21T14:16:39.817Z,1.50
2022-09-21T14:19:18.727Z,1.70
2022-09-21T14:22:04.044Z,1.77
2022-09-21T14:24:38.308Z,1.33
2022-09-21T14:27:51.991Z,4.27
2022-09-21T14:30:24.106Z,2.00
2022-09-21T14:33:03.204Z,3.43
2022-09-21T14:35:37.803Z,1.87
2022-09-21T14:38:26.533Z,1.70
2022-09-21T14:40:59.675Z,2.07
2022-09-21T14:43:35.225Z,1.37
2022-09-21T14:46:17.444Z,1.23
2022-09-21T14:49:13.073Z,1.50
2022-09-21T14:51:55.721Z,1.67
2022-09-21T14:55:08.144Z,1.57
2022-09-21T14:58:11.543Z,1.10
2022-09-21T15:00:43.770Z,2.80
2022-09-21T15:03:29.907Z,1.43
2022-09-21T15:06:28.262Z,1.60
2022-09-21T15:09:39.911Z,4.20
2022-09-21T15:12:17.108Z,1.37
2022-09-21T15:14:55.936Z,1.83
2022-09-21T15:17:29.806Z,2.90
2022-09-21T15:20:03.507Z,2.80
2022-09-21T15:22:31.932Z,1.20
2022-09-21T15:25:02.843Z,1.87
2022-09-21T15:27:33.078Z,2.63
2022-09-21T15:30:03.100Z,2.60
2022-09-21T15:32:42.299Z,2.93
2022-09-21T15:35:27.702Z,2.40
2022-09-21T15:37:56.153Z,1.80
2022-09-21T15:40:32.185Z,1.80
2022-09-21T15:43:04.600Z,1.40
2022-09-21T15:45:58.132Z,1.93
2022-09-21T15:48:26.098Z,3.83
2022-09-21T15:50:59.163Z,3.13
2022-09-21T15:53:30.278Z,1.90
2022-09-21T15:56:01.460Z,1.50
2022-09-21T15:58:37.423Z,3.67
2022-09-21T16:01:21.646Z,2.70
2022-09-21T16:03:51.981Z,1.40
2022-09-21T16:06:21.877Z,3.03
2022-09-21T16:08:48.673Z,1.50
2022-09-21T16:11:29.808Z,1.50
2022-09-21T16:14:29.949Z,3.83
2022-09-21T16:17:12.677Z,2.07
2022-09-21T16:19:50.806Z,5.33
2022-09-21T16:22:38.105Z,2.20
2022-09-21T16:25:30.010Z,3.43
2022-09-21T16:27:59.939Z,2.77
2022-09-21T16:30:58.938Z,1.77
2022-09-21T16:33:44.073Z,1.93
2022-09-21T16:36:22.142Z,1.80
2022-09-21T16:38:53.571Z,1.27
2022-09-21T16:41:22.108Z,3.97
2022-09-21T16:43:50.815Z,2.60
2022-09-21T16:46:18.644Z,2.30
2022-09-21T16:48:45.516Z,4.83
2022-09-21T16:51:14.395Z,2.90
2022-09-21T16:53:41.583Z,2.50
2022-09-21T16:56:14.714Z,2.03
2022-09-21T16:58:44.054Z,2.43
2022-09-21T17:01:18.722Z,1.40
2022-09-21T17:03:47.168Z,2.70
2022-09-21T17:06:21.882Z,2.33
2022-09-21T17:08:49.877Z,2.30
2022-09-21T17:11:19.876Z,2.67
2022-09-21T17:13:50.283Z,3.27
2022-09-21T17:16:19.209Z,2.63
2022-09-21T17:18:49.499Z,2.80
2022-09-21T17:21:17.098Z,1.90
2022-09-21T17:23:43.826Z,1.97
2022-09-21T17:26:17.935Z,1.77
2022-09-21T17:28:45.192Z,1.33
2022-09-21T17:31:13.870Z,2.00
2022-09-21T17:33:41.409Z,1.93
2022-09-21T17:36:14.071Z,1.90
2022-09-21T17:38:42.347Z,2.10
2022-09-21T17:41:36.636Z,2.17
2022-09-21T17:44:35.416Z,2.00
2022-09-21T17:47:28.370Z,1.80
2022-09-21T17:50:26.224Z,2.83
2022-09-21T17:53:13.286Z,5.93
2022-09-21T17:55:45.707Z,2.03
2022-09-21T17:58:21.315Z,2.27
2022-09-21T18:00:57.042Z,3.87
2022-09-21T18:03:26.004Z,4.70
2022-09-21T18:06:00.583Z,5.50
2022-09-21T18:08:36.090Z,5.50
2022-09-21T18:11:27.511Z,3.87
2022-09-21T18:14:36.121Z,5.23
2022-09-21T18:17:21.893Z,3.47
2022-09-21T18:20:27.298Z,2.73
2022-09-21T18:23:01.306Z,2.87
2022-09-21T18:25:36.055Z,2.20
2022-09-21T18:28:31.001Z,1.70
2022-09-21T18:31:41.451Z,3.80
2022-09-21T18:34:35.620Z,3.67
2022-09-21T18:37:31.358Z,2.97
2022-09-21T18:40:22.548Z,2.80
2022-09-21T18:43:01.976Z,2.30
2022-09-21T18:45:31.855Z,8.73
2022-09-21T18:48:16.662Z,5.13
2022-09-21T18:50:50.075Z,3.77
2022-09-21T18:53:41.687Z,2.70
2022-09-21T18:56:09.307Z,3.30
2022-09-21T18:58:36.544Z,3.87
2022-09-21T19:01:04.073Z,3.33
2022-09-21T19:03:31.457Z,5.97
2022-09-21T19:06:16.796Z,5.07
2022-09-21T19:08:53.583Z,3.73
2022-09-21T19:11:32.429Z,4.03
2022-09-21T19:14:35.095Z,3.53
2022-09-21T19:17:23.516Z,3.87
2022-09-21T19:20:03.680Z,7.63
2022-09-21T19:22:53.036Z,2.70
2022-09-21T19:25:30.159Z,2.30
2022-09-21T19:28:28.929Z,7.87
2022-09-21T19:31:02.135Z,2.47
2022-09-21T19:33:49.404Z,2.43
2022-09-21T19:36:17.556Z,2.30
2022-09-21T19:38:44.527Z,3.33
2022-09-21T19:41:55.335Z,5.50
2022-09-21T19:44:39.812Z,2.60
2022-09-21T19:47:20.098Z,2.30
2022-09-21T19:49:54.640Z,3.70
2022-09-21T19:52:31.714Z,3.00
2022-09-21T19:55:17.387Z,6.07
2022-09-21T19:58:03.031Z,4.30
2022-09-21T20:00:32.014Z,3.17
2022-09-21T20:03:05.736Z,5.63
2022-09-21T20:05:58.724Z,2.50
2022-09-21T20:08:50.554Z,4.07
2022-09-21T20:11:50.510Z,4.40
2022-09-21T20:14:32.842Z,7.33
2022-09-21T20:17:02.177Z,4.90
2022-09-21T20:19:57.973Z,5.77
2022-09-21T20:22:34.757Z,6.07
2022-09-21T20:25:26.053Z,5.20
2022-09-21T20:27:55.888Z,6.10
2022-09-21T20:30:26.084Z,3.80
2022-09-21T20:32:56.853Z,3.90
2022-09-21T20:35:26.307Z,5.03
2022-09-21T20:37:54.061Z,8.17
2022-09-21T20:40:28.721Z,10.80
2022-09-21T20:42:57.325Z,10.80
2022-09-21T20:45:24.934Z,12.83
2022-09-21T20:47:53.249Z,8.97
2022-09-21T20:50:20.608Z,10.17
2022-09-21T20:52:47.687Z,7.40
2022-09-21T20:55:17.360Z,5.67
2022-09-21T20:57:44.685Z,4.32
2022-09-21T21:00:14.381Z,3.60
2022-09-21T21:02:45.022Z,4.00
2022-09-21T21:05:11.849Z,4.13
2022-09-21T21:07:42.377Z,3.42
2022-09-21T21:10:13.239Z,5.40
2022-09-21T21:12:41.781Z,4.30
2022-09-21T21:15:09.588Z,3.63
2022-09-21T21:17:36.272Z,7.20
2022-09-21T21:20:04.292Z,4.33
2022-09-21T21:22:31.019Z,6.00
2022-09-21T21:24:57.763Z,4.57
2022-09-21T21:27:25.829Z,4.60
2022-09-21T21:29:54.414Z,5.50
2022-09-21T21:32:23.785Z,4.22
2022-09-21T21:34:51.898Z,8.13
2022-09-21T21:37:20.659Z,5.73
2022-09-21T21:39:47.780Z,11.02
2022-09-21T21:42:15.003Z,13.55
2022-09-21T21:44:41.719Z,17.77
2022-09-21T21:47:27.789Z,19.98
2022-09-21T21:49:55.083Z,18.08
2022-09-21T21:52:21.870Z,13.32
2022-09-21T21:54:48.582Z,13.65
2022-09-21T21:57:15.306Z,8.40
2022-09-21T21:59:43.174Z,16.38
2022-09-21T22:02:10.463Z,7.18
2022-09-21T22:04:37.453Z,6.30
2022-09-21T22:07:04.260Z,10.85
2022-09-21T22:09:31.022Z,6.32
2022-09-21T22:12:00.207Z,9.32
2022-09-21T22:14:27.268Z,8.45
2022-09-21T22:16:54.097Z,7.88
2022-09-21T22:19:20.904Z,7.18
2022-09-21T22:21:53.209Z,7.75
2022-09-21T22:24:21.458Z,6.10
2022-09-21T22:26:48.812Z,8.65
2022-09-21T22:29:17.188Z,7.43
2022-09-21T22:31:49.083Z,4.72
2022-09-21T22:34:17.144Z,6.80
2022-09-21T22:36:44.163Z,5.43
2022-09-21T22:39:12.096Z,7.90
2022-09-21T22:41:40.883Z,8.35
2022-09-21T22:44:08.742Z,8.07
2022-09-21T22:46:36.046Z,9.10
2022-09-21T22:49:02.959Z,8.93
2022-09-21T22:51:30.117Z,12.23
2022-09-21T22:53:57.492Z,11.07
2022-09-21T22:56:29.878Z,5.95
2022-09-21T22:58:58.944Z,5.45
2022-09-21T23:01:33.400Z,4.97
2022-09-21T23:04:02.670Z,3.72
2022-09-21T23:06:33.267Z,10.68
2022-09-21T23:09:02.048Z,8.88
2022-09-21T23:11:38.749Z,7.70
2022-09-21T23:14:05.760Z,4.50
2022-09-21T23:16:32.644Z,4.10
2022-09-21T23:18:59.802Z,5.75
2022-09-21T23:21:29.020Z,8.07
2022-09-21T23:23:59.742Z,7.45
2022-09-21T23:26:28.507Z,6.22
2022-09-21T23:28:57.399Z,5.05
2022-09-21T23:31:26.667Z,6.03
2022-09-21T23:33:55.772Z,5.72
2022-09-21T23:36:25.371Z,4.10
2022-09-21T23:38:52.262Z,5.18
2022-09-21T23:41:23.901Z,5.47
2022-09-21T23:43:51.108Z,3.83
2022-09-21T23:46:20.584Z,3.70
2022-09-21T23:48:47.713Z,4.30
2022-09-21T23:51:15.324Z,4.95
2022-09-21T23:53:42.614Z,3.50
2022-09-21T23:56:13.275Z,10.35
2022-09-21T23:58:40.386Z,3.83
